Time;durP1;ratioP1;P1;durP2;ratioP2;P2;SDS_P1;SDS_P2;PMS_P1;PMS_P2;Temp;Humidity;BMP_temperature;BMP_pressure;BME280_temperature;BME280_humidity;BME280_pressure;Samples;Min_cycle;Max_cycle;Signal;HPM_P1;HPM_P2
2023/12/10 00:01:56;;;;;;;;;;;1.30;99.90;;;;;;4996429;28;20306;-78
2023/12/10 00:04:21;;;;;;;;;;;1.40;99.90;;;;;;4996695;28;19910;-78
2023/12/10 00:06:47;;;;;;;;;;;1.40;99.90;;;;;;4993772;28;19948;-77
2023/12/10 00:09:13;;;;;;;;;;;1.50;99.90;;;;;;5011059;28;19960;-75
2023/12/10 00:11:38;;;;;;;;;;;1.50;99.90;;;;;;4995922;28;20382;-76
2023/12/10 00:14:05;;;;;;;;;;;1.40;99.90;;;;;;4995835;28;20008;-74
2023/12/10 00:16:31;;;;;;;;;;;1.50;99.90;;;;;;4998214;28;19933;-76
2023/12/10 00:18:57;;;;;;;;;;;1.50;99.90;;;;;;5000631;28;20378;-77
2023/12/10 00:21:22;;;;;;;;;;;1.40;99.90;;;;;;4998144;28;19924;-78
2023/12/10 00:23:48;;;;;;;;;;;1.30;99.90;;;;;;4995092;28;20302;-77
2023/12/10 00:26:14;;;;;;;;;;;1.30;99.90;;;;;;4995635;28;19925;-76
2023/12/10 00:28:39;;;;;;;;;;;1.50;99.90;;;;;;4994349;28;19912;-76
2023/12/10 00:31:08;;;;;;;;;;;1.30;99.90;;;;;;4993529;28;19916;-76
2023/12/10 00:33:34;;;;;;;;;;;1.40;99.90;;;;;;4993268;28;19906;-76
2023/12/10 00:35:59;;;;;;;;;;;1.40;99.90;;;;;;4994724;28;19918;-76
2023/12/10 00:38:25;;;;;;;;;;;1.20;99.90;;;;;;4995048;28;19905;-76
2023/12/10 00:40:50;;;;;;;;;;;1.20;99.90;;;;;;4995117;28;19917;-76
2023/12/10 00:43:16;;;;;;;;;;;1.20;99.90;;;;;;5009662;28;19917;-77
2023/12/10 00:45:42;;;;;;;;;;;1.20;99.90;;;;;;4993436;28;19910;-76
2023/12/10 00:48:08;;;;;;;;;;;1.40;99.90;;;;;;4995167;28;19910;-77
2023/12/10 00:50:34;;;;;;;;;;;1.20;99.90;;;;;;4995152;28;20375;-76
2023/12/10 00:53:02;;;;;;;;;;;1.10;99.90;;;;;;4994044;28;19914;-76
2023/12/10 00:55:28;;;;;;;;;;;1.10;99.90;;;;;;4994707;28;19905;-77
2023/12/10 00:57:54;;;;;;;;;;;1.20;99.90;;;;;;4995146;28;20398;-76
2023/12/10 01:00:19;;;;;;;;;;;1.20;99.90;;;;;;4993879;28;19917;-76
2023/12/10 01:02:45;;;;;;;;;;;1.30;99.90;;;;;;4995257;28;19971;-76
2023/12/10 01:05:11;;;;;;;;;;;1.20;99.90;;;;;;4994683;28;19916;-76
2023/12/10 01:07:36;;;;;;;;;;;1.30;99.90;;;;;;4995808;28;19960;-76
2023/12/10 01:10:05;;;;;;;;;;;1.20;99.90;;;;;;4994097;28;20386;-77
2023/12/10 01:12:35;;;;;;;;;;;1.10;99.90;;;;;;4993708;28;19917;-76
2023/12/10 01:15:01;;;;;;;;;;;1.10;99.90;;;;;;4994904;28;19909;-77
2023/12/10 01:17:26;;;;;;;;;;;1.00;99.90;;;;;;4994828;28;19960;-76
2023/12/10 01:19:52;;;;;;;;;;;0.90;99.90;;;;;;4995173;28;19977;-76
2023/12/10 01:22:17;;;;;;;;;;;0.90;99.90;;;;;;4994990;28;20422;-77
2023/12/10 01:24:45;;;;;;;;;;;0.90;99.90;;;;;;5009668;28;20283;-76
2023/12/10 01:27:11;;;;;;;;;;;0.90;99.90;;;;;;4994744;28;19969;-76
2023/12/10 01:29:36;;;;;;;;;;;1.00;99.90;;;;;;4995185;28;19910;-76
2023/12/10 01:32:02;;;;;;;;;;;1.20;99.90;;;;;;5012209;28;19964;-77
2023/12/10 01:34:28;;;;;;;;;;;1.20;99.90;;;;;;4995477;28;19910;-77
2023/12/10 01:36:53;;;;;;;;;;;1.20;99.90;;;;;;4996871;28;19910;-77
2023/12/10 01:39:19;;;;;;;;;;;1.20;99.90;;;;;;4994483;28;19916;-76
2023/12/10 01:41:45;;;;;;;;;;;1.30;99.90;;;;;;4994889;28;19918;-76
2023/12/10 01:44:10;;;;;;;;;;;1.20;99.90;;;;;;4994885;28;19920;-76
2023/12/10 01:46:36;;;;;;;;;;;1.20;99.90;;;;;;4995396;28;19939;-77
2023/12/10 01:49:02;;;;;;;;;;;1.30;99.90;;;;;;4997952;28;19932;-78
2023/12/10 01:51:28;;;;;;;;;;;1.30;99.90;;;;;;4994072;28;19917;-77
2023/12/10 01:53:53;;;;;;;;;;;1.20;99.90;;;;;;4992212;28;19913;-76
2023/12/10 01:56:20;;;;;;;;;;;1.10;99.90;;;;;;4992623;28;19910;-77
2023/12/10 01:58:46;;;;;;;;;;;1.10;99.90;;;;;;5008626;28;20016;-77
2023/12/10 02:01:12;;;;;;;;;;;1.10;99.90;;;;;;4993747;28;20434;-76
2023/12/10 02:03:37;;;;;;;;;;;1.10;99.90;;;;;;4991965;28;19968;-77
2023/12/10 02:06:03;;;;;;;;;;;1.30;99.90;;;;;;4992073;28;19929;-78
2023/12/10 02:08:29;;;;;;;;;;;1.30;99.90;;;;;;4992896;28;19960;-76
2023/12/10 02:10:54;;;;;;;;;;;1.40;99.90;;;;;;4993271;28;19916;-77
2023/12/10 02:13:20;;;;;;;;;;;1.40;99.90;;;;;;4993887;28;19952;-77
2023/12/10 02:15:46;;;;;;;;;;;1.50;99.90;;;;;;4993404;28;19906;-76
2023/12/10 02:18:12;;;;;;;;;;;1.40;99.90;;;;;;4992323;28;19906;-77
2023/12/10 02:20:38;;;;;;;;;;;1.50;99.90;;;;;;4992171;28;20395;-77
2023/12/10 02:23:10;;;;;;;;;;;1.50;99.90;;;;;;4992461;28;19918;-76
2023/12/10 02:25:36;;;;;;;;;;;1.50;99.90;;;;;;4993277;28;19925;-76
2023/12/10 02:28:02;;;;;;;;;;;1.50;99.90;;;;;;4995425;28;19909;-77
2023/12/10 02:30:28;;;;;;;;;;;1.50;99.90;;;;;;4994197;28;19913;-77
2023/12/10 02:32:54;;;;;;;;;;;1.50;99.90;;;;;;4993468;28;19932;-77
2023/12/10 02:35:19;;;;;;;;;;;1.60;99.90;;;;;;4994210;28;20435;-77
2023/12/10 02:37:45;;;;;;;;;;;1.60;99.90;;;;;;4993833;28;19957;-77
2023/12/10 02:40:11;;;;;;;;;;;1.60;99.90;;;;;;4993348;28;19921;-77
2023/12/10 02:42:36;;;;;;;;;;;1.60;99.90;;;;;;4994827;28;19917;-77
2023/12/10 02:45:02;;;;;;;;;;;1.60;99.90;;;;;;4993943;28;19905;-77
2023/12/10 02:47:27;;;;;;;;;;;1.50;99.90;;;;;;4993621;28;19914;-77
2023/12/10 02:49:53;;;;;;;;;;;1.40;99.90;;;;;;4995010;28;19910;-77
2023/12/10 02:52:20;;;;;;;;;;;1.40;99.90;;;;;;4993649;28;20290;-78
2023/12/10 02:54:45;;;;;;;;;;;1.50;99.90;;;;;;4993925;28;19906;-76
2023/12/10 02:57:11;;;;;;;;;;;1.60;99.90;;;;;;4994612;28;20295;-76
2023/12/10 02:59:36;;;;;;;;;;;1.50;99.90;;;;;;4995607;28;20003;-77
2023/12/10 03:02:02;;;;;;;;;;;1.60;99.90;;;;;;4998531;28;19922;-78
2023/12/10 03:04:27;;;;;;;;;;;1.60;99.90;;;;;;4999104;28;19905;-78
2023/12/10 03:06:53;;;;;;;;;;;1.70;99.90;;;;;;4999749;28;20004;-77
2023/12/10 03:09:18;;;;;;;;;;;1.70;99.90;;;;;;4997506;28;20013;-76
2023/12/10 03:11:44;;;;;;;;;;;1.60;99.90;;;;;;5009626;28;19914;-77
2023/12/10 03:14:09;;;;;;;;;;;1.60;99.90;;;;;;5009650;28;19914;-76
2023/12/10 03:16:35;;;;;;;;;;;1.60;99.90;;;;;;5009950;28;20293;-77
2023/12/10 03:19:01;;;;;;;;;;;1.50;99.90;;;;;;4994552;28;19905;-77
2023/12/10 03:21:26;;;;;;;;;;;1.60;99.90;;;;;;4993232;28;19918;-77
2023/12/10 03:23:52;;;;;;;;;;;1.50;99.90;;;;;;5010243;28;19961;-77
2023/12/10 03:26:17;;;;;;;;;;;1.60;99.90;;;;;;4995273;28;19953;-77
2023/12/10 03:28:43;;;;;;;;;;;1.70;99.90;;;;;;4992983;28;19909;-77
2023/12/10 03:31:08;;;;;;;;;;;1.60;99.90;;;;;;5009761;28;19910;-76
2023/12/10 03:33:34;;;;;;;;;;;1.70;99.90;;;;;;4995441;28;19932;-77
2023/12/10 03:36:00;;;;;;;;;;;1.70;99.90;;;;;;4998725;28;19914;-78
2023/12/10 03:38:26;;;;;;;;;;;1.60;99.90;;;;;;4994846;28;19912;-76
2023/12/10 03:40:51;;;;;;;;;;;1.60;99.90;;;;;;4996736;28;19915;-76
2023/12/10 03:43:17;;;;;;;;;;;1.60;99.90;;;;;;4997188;28;19910;-77
2023/12/10 03:45:42;;;;;;;;;;;1.60;99.90;;;;;;4996665;28;19933;-77
2023/12/10 03:48:08;;;;;;;;;;;1.60;99.90;;;;;;4993925;28;19960;-77
2023/12/10 03:50:33;;;;;;;;;;;1.60;99.90;;;;;;4995441;28;19909;-76
2023/12/10 03:52:59;;;;;;;;;;;1.70;99.90;;;;;;4993214;28;20275;-76
2023/12/10 03:55:24;;;;;;;;;;;1.70;99.90;;;;;;4993509;28;20279;-77
2023/12/10 03:57:50;;;;;;;;;;;1.60;99.90;;;;;;4996411;28;20377;-78
2023/12/10 04:00:16;;;;;;;;;;;1.60;99.90;;;;;;5000956;28;19921;-78
2023/12/10 04:02:42;;;;;;;;;;;1.50;99.90;;;;;;5004440;28;19905;-77
2023/12/10 04:05:11;;;;;;;;;;;1.50;99.90;;;;;;4997817;28;19948;-77
2023/12/10 04:07:39;;;;;;;;;;;1.70;99.90;;;;;;4998056;28;20401;-77
2023/12/10 04:10:06;;;;;;;;;;;1.70;99.90;;;;;;4996229;28;20465;-77
2023/12/10 04:12:31;;;;;;;;;;;1.60;99.90;;;;;;4995670;28;20009;-76
2023/12/10 04:14:57;;;;;;;;;;;1.60;99.90;;;;;;4996069;28;19930;-77
2023/12/10 04:17:22;;;;;;;;;;;1.50;99.90;;;;;;4995321;28;19933;-76
2023/12/10 04:19:48;;;;;;;;;;;1.60;99.90;;;;;;4993700;28;19912;-77
2023/12/10 04:22:13;;;;;;;;;;;1.50;99.90;;;;;;4995321;28;19950;-76
2023/12/10 04:24:39;;;;;;;;;;;1.30;99.90;;;;;;4995270;28;19910;-77
2023/12/10 04:27:04;;;;;;;;;;;1.40;99.90;;;;;;4994381;28;20004;-76
2023/12/10 04:29:30;;;;;;;;;;;1.30;99.90;;;;;;4996379;28;19912;-77
2023/12/10 04:31:56;;;;;;;;;;;1.30;99.90;;;;;;5011294;28;19910;-76
2023/12/10 04:34:21;;;;;;;;;;;1.50;99.90;;;;;;4995268;28;20382;-77
2023/12/10 04:36:47;;;;;;;;;;;1.70;99.90;;;;;;4994964;28;19910;-76
2023/12/10 04:39:13;;;;;;;;;;;1.60;99.90;;;;;;4994625;28;20286;-77
2023/12/10 04:41:39;;;;;;;;;;;1.50;99.90;;;;;;4994625;28;19996;-77
2023/12/10 04:44:04;;;;;;;;;;;1.50;99.90;;;;;;4996523;28;20519;-77
2023/12/10 04:46:30;;;;;;;;;;;1.50;99.90;;;;;;4994427;28;20012;-76
2023/12/10 04:48:55;;;;;;;;;;;1.50;99.90;;;;;;4996164;28;20561;-77
2023/12/10 04:51:21;;;;;;;;;;;1.40;99.90;;;;;;4994511;28;19993;-78
2023/12/10 04:53:46;;;;;;;;;;;1.40;99.90;;;;;;4997549;28;19906;-78
2023/12/10 04:56:12;;;;;;;;;;;1.40;99.90;;;;;;4995909;28;20272;-77
2023/12/10 04:58:37;;;;;;;;;;;1.30;99.90;;;;;;4995048;28;19916;-77
2023/12/10 05:01:03;;;;;;;;;;;1.20;99.90;;;;;;4994503;28;19920;-77
2023/12/10 05:03:29;;;;;;;;;;;1.30;99.90;;;;;;4994411;28;20298;-77
2023/12/10 05:05:55;;;;;;;;;;;1.50;99.90;;;;;;4994050;28;20379;-77
2023/12/10 05:08:20;;;;;;;;;;;1.60;99.90;;;;;;4996116;28;19913;-78
2023/12/10 05:10:46;;;;;;;;;;;1.50;99.90;;;;;;4998373;28;19913;-77
2023/12/10 05:13:11;;;;;;;;;;;1.50;99.90;;;;;;4997391;28;19941;-78
2023/12/10 05:15:37;;;;;;;;;;;1.50;99.90;;;;;;4996170;28;19953;-78
2023/12/10 05:18:03;;;;;;;;;;;1.60;99.90;;;;;;4996069;28;20375;-77
2023/12/10 05:20:28;;;;;;;;;;;1.60;99.90;;;;;;4993881;28;20378;-77
2023/12/10 05:22:54;;;;;;;;;;;1.50;99.90;;;;;;4994963;28;19914;-77
2023/12/10 05:25:19;;;;;;;;;;;1.50;99.90;;;;;;4996404;28;19929;-77
2023/12/10 05:27:45;;;;;;;;;;;1.50;99.90;;;;;;4995568;28;19909;-76
2023/12/10 05:30:11;;;;;;;;;;;1.30;99.90;;;;;;4995088;28;19914;-76
2023/12/10 05:32:37;;;;;;;;;;;1.50;99.90;;;;;;4995400;28;19913;-77
2023/12/10 05:35:03;;;;;;;;;;;1.50;99.90;;;;;;5011738;28;19909;-77
2023/12/10 05:37:28;;;;;;;;;;;1.60;99.90;;;;;;4994610;28;19916;-76
2023/12/10 05:39:54;;;;;;;;;;;1.60;99.90;;;;;;4996139;28;19914;-77
2023/12/10 05:42:19;;;;;;;;;;;1.40;99.90;;;;;;5011616;28;19920;-76
2023/12/10 05:44:45;;;;;;;;;;;1.50;99.90;;;;;;4991986;28;19917;-75
2023/12/10 05:47:11;;;;;;;;;;;1.60;99.90;;;;;;4993778;28;19909;-76
2023/12/10 05:49:36;;;;;;;;;;;1.40;99.90;;;;;;5007753;28;20337;-79
2023/12/10 05:52:02;;;;;;;;;;;1.50;99.90;;;;;;4993729;28;19964;-77
2023/12/10 05:54:30;;;;;;;;;;;1.60;99.90;;;;;;4995247;28;19941;-76
2023/12/10 05:56:56;;;;;;;;;;;1.60;99.90;;;;;;4993354;28;20384;-75
2023/12/10 05:59:21;;;;;;;;;;;1.60;99.90;;;;;;4992110;28;20378;-75
2023/12/10 06:01:47;;;;;;;;;;;1.50;99.90;;;;;;4991774;28;20020;-76
2023/12/10 06:04:12;;;;;;;;;;;1.50;99.90;;;;;;5006969;28;19909;-76
2023/12/10 06:06:38;;;;;;;;;;;1.60;99.90;;;;;;5007611;28;20313;-77
2023/12/10 06:09:03;;;;;;;;;;;1.60;99.90;;;;;;5010266;28;19949;-78
2023/12/10 06:11:29;;;;;;;;;;;1.50;99.90;;;;;;4993484;28;19997;-77
2023/12/10 06:13:54;;;;;;;;;;;1.30;99.90;;;;;;4992489;28;19937;-77
2023/12/10 06:16:20;;;;;;;;;;;1.30;99.90;;;;;;5007681;28;19952;-77
2023/12/10 06:18:46;;;;;;;;;;;1.30;99.90;;;;;;4994073;28;20290;-78
2023/12/10 06:21:11;;;;;;;;;;;1.30;99.90;;;;;;4992271;28;19913;-76
2023/12/10 06:23:37;;;;;;;;;;;1.40;99.90;;;;;;4992953;28;20394;-76
2023/12/10 06:26:03;;;;;;;;;;;1.50;99.90;;;;;;4992662;28;19919;-76
2023/12/10 06:28:28;;;;;;;;;;;1.40;99.90;;;;;;4989809;28;19905;-76
2023/12/10 06:30:55;;;;;;;;;;;1.30;99.90;;;;;;4991595;28;19906;-76
2023/12/10 06:33:20;;;;;;;;;;;1.40;99.90;;;;;;4991799;28;19965;-77
2023/12/10 06:35:46;;;;;;;;;;;1.50;99.90;;;;;;5006642;28;19976;-75
2023/12/10 06:38:11;;;;;;;;;;;1.40;99.90;;;;;;4991745;28;19954;-76
2023/12/10 06:40:37;;;;;;;;;;;1.50;99.90;;;;;;4991772;28;19914;-76
2023/12/10 06:43:03;;;;;;;;;;;1.60;99.90;;;;;;4991143;28;19905;-76
2023/12/10 06:45:28;;;;;;;;;;;1.60;99.90;;;;;;4990134;28;19909;-75
2023/12/10 06:47:54;;;;;;;;;;;1.70;99.90;;;;;;4991804;28;20414;-76
2023/12/10 06:50:19;;;;;;;;;;;1.70;99.90;;;;;;4994983;28;19910;-76
2023/12/10 06:52:45;;;;;;;;;;;1.70;99.90;;;;;;4997297;28;19905;-76
2023/12/10 06:55:11;;;;;;;;;;;1.70;99.90;;;;;;4998490;28;19909;-76
2023/12/10 06:57:36;;;;;;;;;;;1.70;99.90;;;;;;5009116;28;19910;-77
2023/12/10 07:00:04;;;;;;;;;;;1.60;99.90;;;;;;4997012;28;20402;-77
2023/12/10 07:02:29;;;;;;;;;;;1.50;99.90;;;;;;4996668;28;19932;-77
2023/12/10 07:04:55;;;;;;;;;;;1.50;99.90;;;;;;4993550;28;19922;-76
2023/12/10 07:07:20;;;;;;;;;;;1.70;99.90;;;;;;4992040;28;19905;-76
2023/12/10 07:09:46;;;;;;;;;;;1.50;99.90;;;;;;4993003;28;19909;-77
2023/12/10 07:12:12;;;;;;;;;;;1.70;99.90;;;;;;4993115;28;19912;-77
2023/12/10 07:14:37;;;;;;;;;;;1.60;99.90;;;;;;4991647;28;19910;-77
2023/12/10 07:17:03;;;;;;;;;;;1.60;99.90;;;;;;4991122;28;19913;-77
2023/12/10 07:19:28;;;;;;;;;;;1.60;99.90;;;;;;4993056;28;19910;-77
2023/12/10 07:21:55;;;;;;;;;;;1.50;99.90;;;;;;4991049;28;20028;-76
2023/12/10 07:24:21;;;;;;;;;;;1.30;99.90;;;;;;4993133;28;19910;-77
2023/12/10 07:26:47;;;;;;;;;;;1.30;99.90;;;;;;4992767;28;19968;-77
2023/12/10 07:29:13;;;;;;;;;;;1.30;99.90;;;;;;4991184;28;19909;-77
2023/12/10 07:31:39;;;;;;;;;;;1.40;99.90;;;;;;4993723;28;19929;-77
2023/12/10 07:34:04;;;;;;;;;;;1.50;99.90;;;;;;4996365;28;20285;-77
2023/12/10 07:36:30;;;;;;;;;;;1.60;99.90;;;;;;4996203;28;19910;-77
2023/12/10 07:38:55;;;;;;;;;;;1.50;99.90;;;;;;4992610;28;20566;-77
2023/12/10 07:41:21;;;;;;;;;;;1.60;99.90;;;;;;4996565;28;20339;-77
2023/12/10 07:43:47;;;;;;;;;;;1.60;99.90;;;;;;4996324;28;20366;-77
2023/12/10 07:46:12;;;;;;;;;;;1.70;99.90;;;;;;4995663;28;19910;-77
2023/12/10 07:48:38;;;;;;;;;;;1.70;99.90;;;;;;4994897;28;20382;-77
2023/12/10 07:51:04;;;;;;;;;;;1.70;99.90;;;;;;4995794;28;19929;-76
2023/12/10 07:53:29;;;;;;;;;;;1.50;99.90;;;;;;4995608;28;20271;-77
2023/12/10 07:55:55;;;;;;;;;;;1.60;99.90;;;;;;4996411;28;19948;-77
2023/12/10 07:58:22;;;;;;;;;;;1.60;99.90;;;;;;4995621;28;20290;-77
2023/12/10 08:00:47;;;;;;;;;;;1.50;99.90;;;;;;4996341;28;19913;-77
2023/12/10 08:03:13;;;;;;;;;;;1.50;99.90;;;;;;5011149;28;20712;-76
2023/12/10 08:05:39;;;;;;;;;;;1.40;99.90;;;;;;4996462;28;20374;-76
2023/12/10 08:08:04;;;;;;;;;;;1.40;99.90;;;;;;4996266;28;20385;-77
2023/12/10 08:10:30;;;;;;;;;;;1.30;99.90;;;;;;4995941;28;20444;-76
2023/12/10 08:12:55;;;;;;;;;;;1.30;99.90;;;;;;5010503;28;20513;-77
2023/12/10 08:15:21;;;;;;;;;;;1.30;99.90;;;;;;4996113;28;20394;-77
2023/12/10 08:17:46;;;;;;;;;;;1.30;99.90;;;;;;4994906;28;20375;-78
2023/12/10 08:20:12;;;;;;;;;;;1.40;99.90;;;;;;4995353;28;19910;-77
2023/12/10 08:22:38;;;;;;;;;;;1.40;99.90;;;;;;5012641;28;19910;-77
2023/12/10 08:25:04;;;;;;;;;;;1.40;99.90;;;;;;4994962;28;20362;-76
2023/12/10 08:27:29;;;;;;;;;;;1.40;99.90;;;;;;4993020;28;19906;-77
2023/12/10 08:29:55;;;;;;;;;;;1.30;99.90;;;;;;4994309;28;19912;-76
2023/12/10 08:32:21;;;;;;;;;;;1.40;99.90;;;;;;4993192;28;19916;-78
2023/12/10 08:34:46;;;;;;;;;;;1.40;99.90;;;;;;4994185;28;19912;-76
2023/12/10 08:37:12;;;;;;;;;;;1.50;99.90;;;;;;4994481;28;20012;-76
2023/12/10 08:39:38;;;;;;;;;;;1.50;99.90;;;;;;4994544;28;19913;-76
2023/12/10 08:42:04;;;;;;;;;;;1.60;99.90;;;;;;4992034;28;20819;-77
2023/12/10 08:44:29;;;;;;;;;;;1.70;99.90;;;;;;5008017;28;20441;-76
2023/12/10 08:46:55;;;;;;;;;;;1.70;99.90;;;;;;4993285;28;19921;-76
2023/12/10 08:49:21;;;;;;;;;;;1.70;99.90;;;;;;5007912;28;19912;-76
2023/12/10 08:51:46;;;;;;;;;;;1.80;99.90;;;;;;5008526;28;19996;-77
2023/12/10 08:54:12;;;;;;;;;;;1.70;99.90;;;;;;5009378;28;19910;-76
2023/12/10 08:56:38;;;;;;;;;;;1.70;99.90;;;;;;4991988;28;19906;-76
2023/12/10 08:59:06;;;;;;;;;;;1.70;99.90;;;;;;4993291;28;19910;-77
2023/12/10 09:01:31;;;;;;;;;;;1.80;99.90;;;;;;4992369;28;19914;-76
2023/12/10 09:03:57;;;;;;;;;;;1.80;99.90;;;;;;4993230;28;19913;-76
2023/12/10 09:06:23;;;;;;;;;;;1.90;99.90;;;;;;5008120;28;20363;-76
2023/12/10 09:08:48;;;;;;;;;;;1.90;99.90;;;;;;4991218;28;19912;-77
2023/12/10 09:11:14;;;;;;;;;;;1.80;99.90;;;;;;4992793;28;20342;-76
2023/12/10 09:13:39;;;;;;;;;;;1.90;99.90;;;;;;4992723;28;20333;-78
2023/12/10 09:16:06;;;;;;;;;;;1.90;99.90;;;;;;4992710;28;19909;-76
2023/12/10 09:18:32;;;;;;;;;;;2.00;99.90;;;;;;4993263;28;20298;-77
2023/12/10 09:20:58;;;;;;;;;;;2.10;99.90;;;;;;4992004;28;19960;-76
2023/12/10 09:23:23;;;;;;;;;;;2.00;99.90;;;;;;4991344;28;19909;-76
2023/12/10 09:25:49;;;;;;;;;;;2.10;99.90;;;;;;4991598;28;19929;-77
2023/12/10 09:28:14;;;;;;;;;;;2.10;99.90;;;;;;4993001;28;20349;-76
2023/12/10 09:30:40;;;;;;;;;;;2.10;99.90;;;;;;4992602;28;19913;-76
2023/12/10 09:33:06;;;;;;;;;;;2.20;99.90;;;;;;4986529;28;20278;-76
2023/12/10 09:35:31;;;;;;;;;;;2.20;99.90;;;;;;5007713;28;19910;-76
2023/12/10 09:37:57;;;;;;;;;;;2.10;99.90;;;;;;4991178;28;20294;-76
2023/12/10 09:40:22;;;;;;;;;;;2.20;99.90;;;;;;4990574;28;20610;-77
2023/12/10 09:42:48;;;;;;;;;;;2.20;99.90;;;;;;4992627;28;19917;-76
2023/12/10 09:45:13;;;;;;;;;;;2.20;99.90;;;;;;5007456;28;19910;-76
2023/12/10 09:47:40;;;;;;;;;;;2.30;99.90;;;;;;4991981;28;19906;-76
2023/12/10 09:50:05;;;;;;;;;;;2.30;99.90;;;;;;4990711;28;19914;-76
2023/12/10 09:52:31;;;;;;;;;;;2.40;99.90;;;;;;4990628;28;20280;-76
2023/12/10 09:54:57;;;;;;;;;;;2.40;99.90;;;;;;5005148;28;19956;-76
2023/12/10 09:57:22;;;;;;;;;;;2.50;99.90;;;;;;4992101;28;20400;-75
2023/12/10 09:59:48;;;;;;;;;;;2.50;99.90;;;;;;4991251;28;19960;-76
2023/12/10 10:02:15;;;;;;;;;;;2.40;99.90;;;;;;4992471;28;19918;-75
2023/12/10 10:04:41;;;;;;;;;;;2.50;99.90;;;;;;4991938;28;19913;-76
2023/12/10 10:07:07;;;;;;;;;;;2.50;99.90;;;;;;4993011;28;19973;-75
2023/12/10 10:09:34;;;;;;;;;;;2.50;99.90;;;;;;4991651;28;19941;-75
2023/12/10 10:11:59;;;;;;;;;;;2.40;99.90;;;;;;4992472;28;19913;-76
2023/12/10 10:14:25;;;;;;;;;;;2.50;99.90;;;;;;4992482;28;19988;-75
2023/12/10 10:16:50;;;;;;;;;;;2.60;99.90;;;;;;4991200;28;19914;-76
2023/12/10 10:19:16;;;;;;;;;;;2.60;99.90;;;;;;5007099;28;19910;-76
2023/12/10 10:21:42;;;;;;;;;;;2.70;99.90;;;;;;4992292;28;19918;-76
2023/12/10 10:24:08;;;;;;;;;;;2.70;99.90;;;;;;4992236;28;19960;-76
2023/12/10 10:26:34;;;;;;;;;;;2.80;99.90;;;;;;4992385;28;19918;-76
2023/12/10 10:29:00;;;;;;;;;;;2.80;99.90;;;;;;5008337;28;20287;-76
2023/12/10 10:31:25;;;;;;;;;;;2.90;99.90;;;;;;4993782;28;19917;-78
2023/12/10 10:33:51;;;;;;;;;;;2.90;99.90;;;;;;4990134;28;19909;-77
2023/12/10 10:36:18;;;;;;;;;;;2.80;99.90;;;;;;4991439;28;20353;-76
2023/12/10 10:38:44;;;;;;;;;;;2.80;99.90;;;;;;4991367;28;19906;-76
2023/12/10 10:41:10;;;;;;;;;;;2.80;99.90;;;;;;4989656;28;20405;-76
2023/12/10 10:43:35;;;;;;;;;;;2.80;99.90;;;;;;4991402;28;19910;-76
2023/12/10 10:46:01;;;;;;;;;;;2.80;99.90;;;;;;4991865;28;19906;-75
2023/12/10 10:48:27;;;;;;;;;;;2.90;99.90;;;;;;4991599;28;19931;-76
2023/12/10 10:50:54;;;;;;;;;;;2.90;99.90;;;;;;5006624;28;19913;-77
2023/12/10 10:53:20;;;;;;;;;;;2.90;99.90;;;;;;4990346;28;19985;-76
2023/12/10 10:55:48;;;;;;;;;;;2.90;99.90;;;;;;4992031;28;19914;-77
2023/12/10 10:58:23;;;;;;;;;;;2.90;99.90;;;;;;4992147;28;19905;-77
2023/12/10 11:00:49;;;;;;;;;;;2.90;99.90;;;;;;4990843;28;19925;-76
2023/12/10 11:03:15;;;;;;;;;;;2.90;99.90;;;;;;4991729;28;20324;-76
2023/12/10 11:05:41;;;;;;;;;;;2.80;99.90;;;;;;4991102;28;19949;-77
2023/12/10 11:08:08;;;;;;;;;;;2.80;99.90;;;;;;4991837;28;19991;-76
2023/12/10 11:10:34;;;;;;;;;;;2.90;99.90;;;;;;4991026;28;20331;-77
2023/12/10 11:13:00;;;;;;;;;;;2.90;99.90;;;;;;4992319;28;20382;-77
2023/12/10 11:15:27;;;;;;;;;;;2.90;99.90;;;;;;5007524;28;19914;-78
2023/12/10 11:18:05;;;;;;;;;;;2.90;99.90;;;;;;4992512;28;19910;-77
2023/12/10 11:20:36;;;;;;;;;;;3.00;99.90;;;;;;4992462;28;19921;-76
2023/12/10 11:23:03;;;;;;;;;;;2.90;99.90;;;;;;4992351;28;19921;-77
2023/12/10 11:25:29;;;;;;;;;;;3.00;99.90;;;;;;4990587;28;20382;-77
2023/12/10 11:27:58;;;;;;;;;;;3.00;99.90;;;;;;4992062;28;19909;-77
2023/12/10 11:30:24;;;;;;;;;;;3.10;99.90;;;;;;4992168;28;20301;-77
2023/12/10 11:32:49;;;;;;;;;;;3.10;99.90;;;;;;4990555;28;19909;-77
2023/12/10 11:35:15;;;;;;;;;;;3.10;99.90;;;;;;4991798;28;19925;-76
2023/12/10 11:37:44;;;;;;;;;;;3.10;99.90;;;;;;4990153;28;20305;-76
2023/12/10 11:40:09;;;;;;;;;;;3.10;99.90;;;;;;5007102;28;20394;-76
2023/12/10 11:42:35;;;;;;;;;;;3.20;99.90;;;;;;4995029;28;19918;-77
2023/12/10 11:45:02;;;;;;;;;;;3.10;99.90;;;;;;4988102;28;19909;-77
2023/12/10 11:47:27;;;;;;;;;;;3.20;99.90;;;;;;4988146;28;20390;-76
2023/12/10 11:49:54;;;;;;;;;;;3.10;99.90;;;;;;4989219;28;19916;-76
2023/12/10 11:52:20;;;;;;;;;;;3.10;99.90;;;;;;4989650;28;19905;-76
2023/12/10 11:54:46;;;;;;;;;;;3.10;99.90;;;;;;4990382;28;19910;-76
2023/12/10 11:57:12;;;;;;;;;;;3.10;99.90;;;;;;5004364;28;19933;-76
2023/12/10 11:59:38;;;;;;;;;;;3.00;99.90;;;;;;4988880;28;19909;-76
2023/12/10 12:02:04;;;;;;;;;;;3.00;99.90;;;;;;4990335;28;19996;-75
2023/12/10 12:04:29;;;;;;;;;;;3.00;99.90;;;;;;4989799;28;20394;-76
2023/12/10 12:06:55;;;;;;;;;;;3.00;99.90;;;;;;5004859;28;19921;-76
2023/12/10 12:09:21;;;;;;;;;;;2.70;99.90;;;;;;4989744;28;19941;-76
2023/12/10 12:11:48;;;;;;;;;;;2.70;99.90;;;;;;4990566;28;20004;-76
2023/12/10 12:14:17;;;;;;;;;;;2.70;99.90;;;;;;4987690;28;20393;-76
2023/12/10 12:16:42;;;;;;;;;;;2.80;99.90;;;;;;4989938;28;19905;-77
2023/12/10 12:19:08;;;;;;;;;;;2.80;99.90;;;;;;4992752;28;19952;-75
2023/12/10 12:21:34;;;;;;;;;;;2.80;99.90;;;;;;4992835;28;19925;-75
2023/12/10 12:23:59;;;;;;;;;;;2.90;99.90;;;;;;4994314;28;19910;-76
2023/12/10 12:26:25;;;;;;;;;;;2.90;99.90;;;;;;4994315;28;19928;-76
2023/12/10 12:28:50;;;;;;;;;;;2.90;99.90;;;;;;5011386;28;19906;-76
2023/12/10 12:31:16;;;;;;;;;;;2.90;99.90;;;;;;5009462;28;19905;-76
2023/12/10 12:33:41;;;;;;;;;;;2.90;99.90;;;;;;4995173;28;19916;-77
2023/12/10 12:36:07;;;;;;;;;;;3.00;99.90;;;;;;5011782;28;20374;-77
2023/12/10 12:38:33;;;;;;;;;;;3.00;99.90;;;;;;4996626;28;20394;-78
2023/12/10 12:40:59;;;;;;;;;;;3.00;99.90;;;;;;4999470;28;19913;-77
2023/12/10 12:43:24;;;;;;;;;;;3.00;99.90;;;;;;4997199;28;19921;-77
2023/12/10 12:45:50;;;;;;;;;;;3.10;99.90;;;;;;4994059;28;20378;-76
2023/12/10 12:48:15;;;;;;;;;;;3.00;99.90;;;;;;4994161;28;19916;-77
2023/12/10 12:50:41;;;;;;;;;;;3.00;99.90;;;;;;4993133;28;19992;-77
2023/12/10 12:53:06;;;;;;;;;;;3.10;99.90;;;;;;4993196;28;19909;-77
2023/12/10 12:55:32;;;;;;;;;;;3.00;99.90;;;;;;4994639;28;19909;-78
2023/12/10 12:57:58;;;;;;;;;;;3.00;99.90;;;;;;4996257;28;19906;-77
2023/12/10 13:00:23;;;;;;;;;;;3.00;99.90;;;;;;4994693;28;19910;-77
2023/12/10 13:02:49;;;;;;;;;;;3.00;99.90;;;;;;4995493;28;19914;-76
2023/12/10 13:05:14;;;;;;;;;;;2.90;99.90;;;;;;5010320;28;19944;-77
2023/12/10 13:07:40;;;;;;;;;;;2.90;99.90;;;;;;5009990;28;19916;-77
2023/12/10 13:10:07;;;;;;;;;;;2.80;99.90;;;;;;4995721;28;19906;-77
2023/12/10 13:12:41;;;;;;;;;;;2.80;99.90;;;;;;4993987;28;20371;-76
2023/12/10 13:15:08;;;;;;;;;;;2.90;99.90;;;;;;4994241;28;19937;-76
2023/12/10 13:17:43;;;;;;;;;;;2.90;99.90;;;;;;4991215;28;19913;-76
2023/12/10 13:20:09;;;;;;;;;;;2.90;99.90;;;;;;4991459;28;19905;-77
2023/12/10 13:22:35;;;;;;;;;;;2.80;99.90;;;;;;5008535;28;20386;-77
2023/12/10 13:25:01;;;;;;;;;;;2.90;99.90;;;;;;4993654;28;20014;-78
2023/12/10 13:27:27;;;;;;;;;;;2.90;99.90;;;;;;4992590;28;19913;-77
2023/12/10 13:29:53;;;;;;;;;;;2.90;99.90;;;;;;4991771;28;19916;-78
2023/12/10 13:32:18;;;;;;;;;;;2.90;99.90;;;;;;5008053;28;20302;-76
2023/12/10 13:34:44;;;;;;;;;;;2.80;99.90;;;;;;4990839;28;19957;-76
2023/12/10 13:37:13;;;;;;;;;;;2.80;99.90;;;;;;4992779;28;19945;-76
2023/12/10 13:39:38;;;;;;;;;;;2.80;99.90;;;;;;4990572;28;19953;-77
2023/12/10 13:42:05;;;;;;;;;;;2.80;99.90;;;;;;4991302;28;19914;-76
2023/12/10 13:44:32;;;;;;;;;;;2.80;99.90;;;;;;5008820;28;19932;-76
2023/12/10 13:46:57;;;;;;;;;;;2.80;99.90;;;;;;5008366;28;21128;-78
2023/12/10 13:49:23;;;;;;;;;;;2.80;99.90;;;;;;4990608;28;19917;-77
2023/12/10 13:51:48;;;;;;;;;;;2.70;99.90;;;;;;4992714;28;19909;-77
2023/12/10 13:54:16;;;;;;;;;;;2.70;99.90;;;;;;4992061;28;19910;-76
2023/12/10 13:56:41;;;;;;;;;;;2.70;99.90;;;;;;4991566;28;19913;-77
2023/12/10 13:59:07;;;;;;;;;;;2.60;99.90;;;;;;5007759;28;19910;-77
2023/12/10 14:01:32;;;;;;;;;;;2.70;99.90;;;;;;5009262;28;19913;-77
2023/12/10 14:03:58;;;;;;;;;;;2.60;99.90;;;;;;4991647;28;19916;-77
2023/12/10 14:06:23;;;;;;;;;;;2.60;99.90;;;;;;5006803;28;19905;-76
2023/12/10 14:08:49;;;;;;;;;;;2.60;99.90;;;;;;4992871;28;20375;-76
2023/12/10 14:11:14;;;;;;;;;;;2.60;99.90;;;;;;4992942;28;19913;-76
2023/12/10 14:13:40;;;;;;;;;;;2.60;99.90;;;;;;5008141;28;19936;-76
2023/12/10 14:16:05;;;;;;;;;;;2.60;99.90;;;;;;4991819;28;19906;-77
2023/12/10 14:18:31;;;;;;;;;;;2.60;99.90;;;;;;4991960;28;19909;-76
2023/12/10 14:20:57;;;;;;;;;;;2.70;99.90;;;;;;4991963;28;20387;-75
2023/12/10 14:23:22;;;;;;;;;;;2.60;99.90;;;;;;4991080;28;20429;-75